createdAt,value
2019-01-06T00:02:07.398Z,7.80
2019-01-06T00:05:03.936Z,8.45
2019-01-06T00:07:49.957Z,7.80
2019-01-06T00:10:46.038Z,9.05
2019-01-06T00:13:39.634Z,7.60
2019-01-06T00:16:42.170Z,9.40
2019-01-06T00:19:32.082Z,8.80
2019-01-06T00:22:18.959Z,8.55
2019-01-06T00:25:06.356Z,10.08
2019-01-06T00:27:52.376Z,10.13
2019-01-06T00:30:37.230Z,10.15
2019-01-06T00:33:23.130Z,9.10
2019-01-06T00:36:29.129Z,10.10
2019-01-06T00:39:24.029Z,9.90
2019-01-06T00:42:25.697Z,6.85
2019-01-06T00:45:33.365Z,8.18
2019-01-06T00:48:27.861Z,10.50
2019-01-06T00:51:15.292Z,9.05
2019-01-06T00:54:02.035Z,14.28
2019-01-06T00:56:55.781Z,9.23
2019-01-06T00:59:47.193Z,9.65
2019-01-06T01:02:40.251Z,9.93
2019-01-06T01:05:45.462Z,11.65
2019-01-06T01:08:31.894Z,65.72
2019-01-06T01:11:28.349Z,241.08
2019-01-06T01:14:14.361Z,60.70
2019-01-06T01:17:10.625Z,21.95
2019-01-06T01:20:10.056Z,41.10
2019-01-06T01:23:08.776Z,118.53
2019-01-06T01:26:01.690Z,43.23
2019-01-06T01:28:48.810Z,70.45
2019-01-06T01:31:48.046Z,138.25
2019-01-06T01:34:40.163Z,57.55
2019-01-06T01:37:34.541Z,147.65
2019-01-06T01:40:32.399Z,112.30
2019-01-06T01:43:26.718Z,86.90
2019-01-06T01:46:12.793Z,108.72
2019-01-06T01:49:00.378Z,190.75
2019-01-06T01:51:47.430Z,39.70
2019-01-06T01:54:34.238Z,29.05
2019-01-06T01:57:20.029Z,136.05
2019-01-06T02:00:10.329Z,93.52
2019-01-06T02:03:03.531Z,73.30
2019-01-06T02:05:44.137Z,123.15
2019-01-06T02:08:34.568Z,115.47
2019-01-06T02:11:33.048Z,302.65
2019-01-06T02:14:29.225Z,146.45
2019-01-06T02:17:15.154Z,128.35
2019-01-06T02:19:55.400Z,103.72
2019-01-06T02:22:59.938Z,61.80
2019-01-06T02:25:46.550Z,80.15
2019-01-06T02:28:36.949Z,125.35
2019-01-06T02:31:33.549Z,121.45
2019-01-06T02:34:21.440Z,242.40
2019-01-06T02:37:16.630Z,178.03
2019-01-06T02:40:04.079Z,159.78
2019-01-06T02:43:05.654Z,86.87
2019-01-06T02:46:05.315Z,73.33
2019-01-06T02:48:58.709Z,167.55
2019-01-06T02:51:46.079Z,43.68
2019-01-06T02:54:32.547Z,42.05
2019-01-06T02:57:25.481Z,99.10
2019-01-06T03:00:11.202Z,51.47
2019-01-06T03:02:57.070Z,96.35
2019-01-06T03:05:43.165Z,112.20
2019-01-06T03:08:32.786Z,129.63
2019-01-06T03:11:38.293Z,122.72
2019-01-06T03:14:15.673Z,119.55
2019-01-06T03:17:01.713Z,120.30
2019-01-06T03:19:48.534Z,286.30
2019-01-06T03:22:35.198Z,142.22
2019-01-06T03:25:23.495Z,135.97
2019-01-06T03:28:07.470Z,270.37
2019-01-06T03:30:54.706Z,158.80
2019-01-06T03:33:40.744Z,75.70
2019-01-06T03:36:31.657Z,225.43
2019-01-06T03:39:36.754Z,171.75
2019-01-06T03:42:29.849Z,175.00
2019-01-06T03:45:03.086Z,119.70
2019-01-06T03:47:53.293Z,74.82
2019-01-06T03:50:40.497Z,78.60
2019-01-06T03:53:27.223Z,196.15
2019-01-06T03:56:20.675Z,166.43
2019-01-06T03:59:25.910Z,96.28
2019-01-06T04:02:13.042Z,240.57
2019-01-06T04:04:58.745Z,174.77
2019-01-06T04:07:58.229Z,242.32
2019-01-06T04:10:49.795Z,84.00
2019-01-06T04:13:37.590Z,139.90
2019-01-06T04:16:43.358Z,77.32
2019-01-06T04:19:39.678Z,206.75
2019-01-06T04:22:25.885Z,169.77
2019-01-06T04:25:10.017Z,45.30
2019-01-06T04:27:57.136Z,133.37
2019-01-06T04:30:43.623Z,72.17
2019-01-06T04:33:29.753Z,182.97
2019-01-06T04:36:16.033Z,52.70
2019-01-06T04:39:20.266Z,97.23
2019-01-06T04:42:06.954Z,309.07
2019-01-06T04:44:59.848Z,170.30
2019-01-06T04:47:56.695Z,147.98
2019-01-06T04:50:52.961Z,96.40
2019-01-06T04:53:40.448Z,173.27
2019-01-06T04:56:33.482Z,161.40
2019-01-06T04:59:23.606Z,187.00
2019-01-06T05:02:09.833Z,142.05
2019-01-06T05:04:59.257Z,158.93
2019-01-06T05:07:45.610Z,116.82
2019-01-06T05:10:38.606Z,178.05
2019-01-06T05:13:37.954Z,176.65
2019-01-06T05:16:24.108Z,266.63
2019-01-06T05:19:10.802Z,188.17
2019-01-06T05:22:08.340Z,210.70
2019-01-06T05:25:01.153Z,113.70
2019-01-06T05:27:47.220Z,191.57
2019-01-06T05:30:35.984Z,85.87
2019-01-06T05:33:38.145Z,119.00
2019-01-06T05:36:24.310Z,158.43
2019-01-06T05:39:14.500Z,131.78
2019-01-06T05:41:58.242Z,129.05
2019-01-06T05:44:48.386Z,57.20
2019-01-06T05:47:44.722Z,41.45
2019-01-06T05:50:25.881Z,87.92
2019-01-06T05:53:20.253Z,69.10
2019-01-06T05:56:16.722Z,48.27
2019-01-06T05:59:06.919Z,56.10
2019-01-06T06:01:49.781Z,134.72
2019-01-06T06:04:35.713Z,32.20
2019-01-06T06:07:27.600Z,52.43
2019-01-06T06:10:21.270Z,36.15
2019-01-06T06:13:11.353Z,137.87
2019-01-06T06:16:07.562Z,113.00
2019-01-06T06:18:43.813Z,50.63
2019-01-06T06:21:31.486Z,24.55
2019-01-06T06:24:28.323Z,78.60
2019-01-06T06:27:20.191Z,59.20
2019-01-06T06:30:20.244Z,77.17
2019-01-06T06:33:16.419Z,53.78
2019-01-06T06:36:03.582Z,49.93
2019-01-06T06:38:59.728Z,118.47
2019-01-06T06:41:49.698Z,66.22
2019-01-06T06:44:52.105Z,155.30
2019-01-06T06:47:43.627Z,72.97
2019-01-06T06:50:29.894Z,70.32
2019-01-06T06:53:16.708Z,177.70
2019-01-06T06:56:02.494Z,31.87
2019-01-06T06:58:52.687Z,49.88
2019-01-06T07:01:51.435Z,36.87
2019-01-06T07:04:57.538Z,44.53
2019-01-06T07:07:46.169Z,29.63
2019-01-06T07:10:32.798Z,46.15
2019-01-06T07:13:19.013Z,58.95
2019-01-06T07:16:03.417Z,70.35
2019-01-06T07:19:09.866Z,82.45
2019-01-06T07:21:56.344Z,177.77
2019-01-06T07:24:43.570Z,61.77
2019-01-06T07:27:43.081Z,48.63
2019-01-06T07:30:39.808Z,62.53
2019-01-06T07:33:27.410Z,40.70
2019-01-06T07:36:14.589Z,25.20
2019-01-06T07:39:00.452Z,74.42
2019-01-06T07:41:48.208Z,65.90
2019-01-06T07:44:32.331Z,32.55
2019-01-06T07:47:28.794Z,49.93
2019-01-06T07:50:19.102Z,55.75
2019-01-06T07:53:07.049Z,63.50
2019-01-06T07:55:51.765Z,53.30
2019-01-06T07:58:50.877Z,31.75
2019-01-06T08:01:44.021Z,148.17
2019-01-06T08:04:38.012Z,62.70
2019-01-06T08:07:43.905Z,39.87
2019-01-06T08:10:40.874Z,27.05
2019-01-06T08:13:33.767Z,46.95
2019-01-06T08:16:30.311Z,19.92
2019-01-06T08:19:16.658Z,18.57
2019-01-06T08:22:02.913Z,20.15
2019-01-06T08:24:59.361Z,23.85
2019-01-06T08:27:49.729Z,25.37
2019-01-06T08:30:51.914Z,18.90
2019-01-06T08:33:42.415Z,14.80
2019-01-06T08:36:47.418Z,14.80
2019-01-06T08:39:47.058Z,40.10
2019-01-06T08:42:36.844Z,48.25
2019-01-06T08:45:27.140Z,19.25
2019-01-06T08:48:28.271Z,30.80
2019-01-06T08:51:48.571Z,29.90
2019-01-06T08:54:30.204Z,16.85
2019-01-06T08:57:16.163Z,14.10
2019-01-06T09:00:09.366Z,18.95
2019-01-06T09:03:02.968Z,20.50
2019-01-06T09:05:54.651Z,20.25
2019-01-06T09:08:41.984Z,22.05
2019-01-06T09:11:37.891Z,25.97
2019-01-06T09:14:19.662Z,22.55
2019-01-06T09:17:10.602Z,16.70
2019-01-06T09:19:57.291Z,26.13
2019-01-06T09:23:02.513Z,19.48
2019-01-06T09:25:46.583Z,16.80
2019-01-06T09:28:32.502Z,24.10
2019-01-06T09:31:25.314Z,15.83
2019-01-06T09:34:15.560Z,14.95
2019-01-06T09:37:01.666Z,13.93
2019-01-06T09:39:47.385Z,10.53
2019-01-06T09:42:32.358Z,11.28
2019-01-06T09:45:18.315Z,11.12
2019-01-06T09:48:08.571Z,14.10
2019-01-06T09:51:08.181Z,9.48
2019-01-06T09:53:58.522Z,9.25
2019-01-06T09:56:44.311Z,9.63
2019-01-06T09:59:30.148Z,6.42
2019-01-06T10:02:15.782Z,9.18
2019-01-06T10:05:07.912Z,7.85
2019-01-06T10:08:04.146Z,9.70
2019-01-06T10:10:50.201Z,7.10
2019-01-06T10:13:37.183Z,6.05
2019-01-06T10:16:23.112Z,7.35
2019-01-06T10:19:09.244Z,6.30
2019-01-06T10:22:09.219Z,5.65
2019-01-06T10:24:52.365Z,5.60
2019-01-06T10:27:42.471Z,7.47
2019-01-06T10:30:35.443Z,7.08
2019-01-06T10:33:21.135Z,7.97
2019-01-06T10:36:17.073Z,8.47
2019-01-06T10:38:59.815Z,10.13
2019-01-06T10:41:53.004Z,7.92
2019-01-06T10:44:38.630Z,10.20
2019-01-06T10:47:44.827Z,9.43
2019-01-06T10:50:44.446Z,10.45
2019-01-06T10:53:30.359Z,9.47
2019-01-06T10:56:13.007Z,10.43
2019-01-06T10:58:59.991Z,10.38
2019-01-06T11:01:46.402Z,20.92
2019-01-06T11:04:42.639Z,53.13
2019-01-06T11:07:36.538Z,17.40
2019-01-06T11:10:36.317Z,12.80
2019-01-06T11:13:25.742Z,47.73
2019-01-06T11:16:16.263Z,21.33
2019-01-06T11:19:18.905Z,12.45
2019-01-06T11:22:17.988Z,12.83
2019-01-06T11:25:17.962Z,11.10
2019-01-06T11:28:20.106Z,10.65
2019-01-06T11:31:07.931Z,10.93
2019-01-06T11:34:10.297Z,11.43
2019-01-06T11:37:12.394Z,11.12
2019-01-06T11:40:00.411Z,11.43
2019-01-06T11:42:47.424Z,10.90
2019-01-06T11:45:37.599Z,8.53
2019-01-06T11:48:24.858Z,10.18
2019-01-06T11:51:10.974Z,11.05
2019-01-06T11:53:57.990Z,11.63
2019-01-06T11:56:41.731Z,12.90
2019-01-06T11:59:44.110Z,13.20
2019-01-06T12:02:30.310Z,11.70
2019-01-06T12:05:16.416Z,9.78
2019-01-06T12:08:03.128Z,15.23
2019-01-06T12:10:39.690Z,10.85
2019-01-06T12:13:25.451Z,9.63
2019-01-06T12:16:25.045Z,11.20
2019-01-06T12:19:12.023Z,8.90
2019-01-06T12:21:58.391Z,8.85
2019-01-06T12:25:00.827Z,10.33
2019-01-06T12:27:54.070Z,10.13
2019-01-06T12:30:47.174Z,9.65
2019-01-06T12:33:46.888Z,10.72
2019-01-06T12:36:40.135Z,9.68
2019-01-06T12:39:27.467Z,9.90
2019-01-06T12:42:14.454Z,8.30
2019-01-06T12:45:07.607Z,10.90
2019-01-06T12:48:00.390Z,9.88
2019-01-06T12:50:59.484Z,9.53
2019-01-06T12:54:01.972Z,10.32
2019-01-06T12:56:48.951Z,11.95
2019-01-06T12:59:35.936Z,12.53
2019-01-06T13:02:15.698Z,13.40
2019-01-06T13:05:02.721Z,14.50
2019-01-06T13:07:55.754Z,14.10
2019-01-06T13:10:54.910Z,16.05
2019-01-06T13:14:00.078Z,14.45
2019-01-06T13:16:47.378Z,15.40
2019-01-06T13:19:35.440Z,14.58
2019-01-06T13:22:25.339Z,13.68
2019-01-06T13:25:12.366Z,14.53
2019-01-06T13:27:58.019Z,13.10
2019-01-06T13:30:44.511Z,13.75
2019-01-06T13:33:40.866Z,12.60
2019-01-06T13:36:28.172Z,13.38
2019-01-06T13:39:27.543Z,12.28
2019-01-06T13:42:13.912Z,11.83
2019-01-06T13:45:03.711Z,12.80
2019-01-06T13:47:50.703Z,11.85
2019-01-06T13:50:36.327Z,12.10
2019-01-06T13:53:23.949Z,12.05
2019-01-06T13:56:10.006Z,13.18
2019-01-06T13:58:55.910Z,16.32
2019-01-06T14:01:54.438Z,15.68
2019-01-06T14:04:45.278Z,16.97
2019-01-06T14:07:27.695Z,16.12
2019-01-06T14:10:14.822Z,14.47
2019-01-06T14:13:00.560Z,15.15
2019-01-06T14:15:46.792Z,14.93
2019-01-06T14:18:26.768Z,15.08
2019-01-06T14:21:12.754Z,15.58
2019-01-06T14:23:56.986Z,16.37
2019-01-06T14:26:33.477Z,15.30
2019-01-06T14:29:23.947Z,18.10
2019-01-06T14:32:13.859Z,16.73
2019-01-06T14:34:59.959Z,17.00
2019-01-06T14:37:46.987Z,16.62
2019-01-06T14:40:33.922Z,16.77
2019-01-06T14:43:30.030Z,16.10
2019-01-06T14:46:16.030Z,16.57
2019-01-06T14:49:01.899Z,17.00
2019-01-06T14:51:47.550Z,17.10
2019-01-06T14:54:37.447Z,17.80
2019-01-06T14:57:36.767Z,16.12
2019-01-06T15:00:36.993Z,18.95
2019-01-06T15:03:23.992Z,18.40
2019-01-06T15:06:19.931Z,19.03
2019-01-06T15:09:06.945Z,27.05
2019-01-06T15:12:04.538Z,19.87
2019-01-06T15:15:09.963Z,20.35
2019-01-06T15:17:55.610Z,19.62
2019-01-06T15:20:41.187Z,20.43
2019-01-06T15:23:28.194Z,21.30
2019-01-06T15:26:24.474Z,20.70
2019-01-06T15:29:10.407Z,19.73
2019-01-06T15:31:56.508Z,18.55
2019-01-06T15:34:42.768Z,20.60
2019-01-06T15:37:45.207Z,21.35
2019-01-06T15:40:40.171Z,21.73
2019-01-06T15:43:33.064Z,22.70
2019-01-06T15:46:26.458Z,26.23
2019-01-06T15:49:12.457Z,28.90
2019-01-06T15:51:59.884Z,25.10
2019-01-06T15:54:45.606Z,23.32
2019-01-06T15:57:35.211Z,24.72
2019-01-06T16:00:21.819Z,29.82
2019-01-06T16:03:17.699Z,26.77
2019-01-06T16:06:03.375Z,30.20
2019-01-06T16:09:05.946Z,31.07
2019-01-06T16:11:51.919Z,29.07
2019-01-06T16:14:45.299Z,31.85
2019-01-06T16:17:47.654Z,32.88
2019-01-06T16:20:44.121Z,32.13
2019-01-06T16:23:30.686Z,27.80
2019-01-06T16:26:11.163Z,34.87
2019-01-06T16:28:58.406Z,42.85
2019-01-06T16:31:48.699Z,43.78
2019-01-06T16:34:39.403Z,34.58
2019-01-06T16:37:32.411Z,46.68
2019-01-06T16:40:19.379Z,36.98
2019-01-06T16:43:06.695Z,39.50
2019-01-06T16:45:52.270Z,48.55
2019-01-06T16:48:38.839Z,41.13
2019-01-06T16:51:38.161Z,46.87
2019-01-06T16:54:24.551Z,37.60
2019-01-06T16:57:10.886Z,48.13
2019-01-06T16:59:56.507Z,43.27
2019-01-06T17:02:52.954Z,42.13
2019-01-06T17:05:55.143Z,53.53
2019-01-06T17:08:42.955Z,46.68
2019-01-06T17:11:24.895Z,53.10
2019-01-06T17:14:17.063Z,39.88
2019-01-06T17:17:16.311Z,45.40
2019-01-06T17:20:02.004Z,50.55
2019-01-06T17:22:47.772Z,47.00
2019-01-06T17:25:41.503Z,29.32
2019-01-06T17:28:27.702Z,33.58
2019-01-06T17:31:27.418Z,34.20
2019-01-06T17:34:20.398Z,29.15
2019-01-06T17:37:16.621Z,29.37
2019-01-06T17:40:03.843Z,32.75
2019-01-06T17:43:09.379Z,25.70
2019-01-06T17:45:55.780Z,23.25
2019-01-06T17:48:43.086Z,24.23
2019-01-06T17:51:29.193Z,28.50
2019-01-06T17:54:25.682Z,27.10
2019-01-06T17:57:11.568Z,26.02
2019-01-06T18:00:02.034Z,19.52
2019-01-06T18:02:49.316Z,18.73
2019-01-06T18:05:35.835Z,19.35
2019-01-06T18:08:21.537Z,20.23
2019-01-06T18:11:17.974Z,18.48
2019-01-06T18:14:20.447Z,16.62
2019-01-06T18:17:13.439Z,16.07
2019-01-06T18:19:54.502Z,15.90
2019-01-06T18:22:41.502Z,16.57
2019-01-06T18:25:27.791Z,14.50
2019-01-06T18:28:14.401Z,17.32
2019-01-06T18:31:03.289Z,11.37
2019-01-06T18:33:53.246Z,10.58
2019-01-06T18:36:40.582Z,9.93
2019-01-06T18:39:29.430Z,9.40
2019-01-06T18:42:22.466Z,8.70
2019-01-06T18:45:09.114Z,9.47
2019-01-06T18:48:03.045Z,7.60
2019-01-06T18:50:55.942Z,8.33
2019-01-06T18:53:54.919Z,8.25
2019-01-06T18:56:41.956Z,7.62
2019-01-06T18:59:27.943Z,7.60
2019-01-06T19:02:13.780Z,7.40
2019-01-06T19:05:13.132Z,7.05
2019-01-06T19:07:59.031Z,9.03
2019-01-06T19:10:44.631Z,7.12
2019-01-06T19:13:42.492Z,7.50
2019-01-06T19:16:28.544Z,6.72
2019-01-06T19:19:26.138Z,6.50
2019-01-06T19:22:28.361Z,8.15
2019-01-06T19:25:13.979Z,6.53
2019-01-06T19:28:07.032Z,7.20
2019-01-06T19:30:52.646Z,8.20
2019-01-06T19:33:43.007Z,7.10
2019-01-06T19:36:26.332Z,6.87
2019-01-06T19:38:56.586Z,6.83
2019-01-06T19:41:42.574Z,5.80
2019-01-06T19:44:20.466Z,8.88
2019-01-06T19:47:13.534Z,6.08
2019-01-06T19:50:03.263Z,5.78
2019-01-06T19:52:59.118Z,5.40
2019-01-06T19:55:46.447Z,7.03
2019-01-06T19:58:42.579Z,8.90
2019-01-06T20:01:41.984Z,5.55
2019-01-06T20:04:32.303Z,6.20
2019-01-06T20:07:28.634Z,5.28
2019-01-06T20:10:15.127Z,6.12
2019-01-06T20:13:00.686Z,5.70
2019-01-06T20:15:46.694Z,7.67
2019-01-06T20:18:39.725Z,4.65
2019-01-06T20:21:42.338Z,5.67
2019-01-06T20:24:38.430Z,5.12
2019-01-06T20:27:18.427Z,6.87
2019-01-06T20:30:22.244Z,6.85
2019-01-06T20:33:12.415Z,10.90
2019-01-06T20:36:08.710Z,5.95
2019-01-06T20:38:55.010Z,6.47
2019-01-06T20:41:58.940Z,4.90
2019-01-06T20:44:44.978Z,8.48
2019-01-06T20:47:35.579Z,9.93
2019-01-06T20:50:22.581Z,5.10
2019-01-06T20:53:09.870Z,5.37
2019-01-06T20:55:56.242Z,5.97
2019-01-06T20:58:43.314Z,4.97
2019-01-06T21:01:29.431Z,18.57
2019-01-06T21:04:19.264Z,5.67
2019-01-06T21:07:05.075Z,5.53
2019-01-06T21:09:51.379Z,5.15
2019-01-06T21:12:47.927Z,5.50
2019-01-06T21:15:33.985Z,6.60
2019-01-06T21:18:39.414Z,4.72
2019-01-06T21:21:25.258Z,4.87
2019-01-06T21:24:18.159Z,5.65
2019-01-06T21:27:23.890Z,5.20
2019-01-06T21:30:10.174Z,5.10
2019-01-06T21:32:55.236Z,6.10
2019-01-06T21:35:42.580Z,5.53
2019-01-06T21:38:30.814Z,6.60
2019-01-06T21:41:30.550Z,5.97
2019-01-06T21:44:17.855Z,11.10
2019-01-06T21:47:08.118Z,5.25
2019-01-06T21:49:48.197Z,5.70
2019-01-06T21:52:50.611Z,4.80
2019-01-06T21:55:50.383Z,6.33
2019-01-06T21:58:40.771Z,5.50
2019-01-06T22:01:34.135Z,5.00
2019-01-06T22:04:30.019Z,29.98
2019-01-06T22:07:23.438Z,42.53
2019-01-06T22:10:19.521Z,32.25
2019-01-06T22:13:24.930Z,20.60
2019-01-06T22:16:11.839Z,16.60
2019-01-06T22:18:57.515Z,9.17
2019-01-06T22:21:50.660Z,8.10
2019-01-06T22:24:31.124Z,5.97
2019-01-06T22:27:21.171Z,5.40
2019-01-06T22:30:20.524Z,5.67
2019-01-06T22:33:06.720Z,5.58
2019-01-06T22:35:52.322Z,6.85
2019-01-06T22:38:51.616Z,6.90
2019-01-06T22:41:43.649Z,18.60
2019-01-06T22:44:49.298Z,6.40
2019-01-06T22:47:39.314Z,10.55
2019-01-06T22:50:24.958Z,7.90
2019-01-06T22:53:24.073Z,6.50
2019-01-06T22:56:28.976Z,13.49
2019-01-06T22:59:18.751Z,6.87
2019-01-06T23:02:11.623Z,10.82
2019-01-06T23:04:57.595Z,8.23
2019-01-06T23:07:43.762Z,7.67
2019-01-06T23:10:46.584Z,7.25
2019-01-06T23:13:42.118Z,8.50
2019-01-06T23:16:31.965Z,7.67
2019-01-06T23:19:25.278Z,7.60
2019-01-06T23:22:27.509Z,9.23
2019-01-06T23:25:29.601Z,7.20
2019-01-06T23:28:15.602Z,11.20
2019-01-06T23:31:08.853Z,13.70
2019-01-06T23:34:04.994Z,10.85
2019-01-06T23:36:49.654Z,11.88
2019-01-06T23:39:36.670Z,9.23
2019-01-06T23:42:29.996Z,14.40
2019-01-06T23:45:17.008Z,17.67
2019-01-06T23:48:09.844Z,23.73
2019-01-06T23:51:12.359Z,27.13
2019-01-06T23:53:57.903Z,26.35
2019-01-06T23:56:50.923Z,24.02
2019-01-06T23:59:51.176Z,25.05
